createdAt,value
2023-01-13T00:01:29.120Z,97571.00
2023-01-13T00:03:57.335Z,97571.00
2023-01-13T00:06:29.341Z,97563.00
2023-01-13T00:08:56.543Z,97563.00
2023-01-13T00:11:24.553Z,97567.00
2023-01-13T00:13:51.641Z,97562.00
2023-01-13T00:16:20.086Z,97573.00
2023-01-13T00:18:48.109Z,97568.00
2023-01-13T00:21:21.971Z,97559.00
2023-01-13T00:23:51.235Z,97575.00
2023-01-13T00:26:24.086Z,97579.00
2023-01-13T00:28:51.314Z,97575.00
2023-01-13T00:31:21.070Z,97559.00
2023-01-13T00:33:52.057Z,97562.00
2023-01-13T00:36:21.057Z,97557.00
2023-01-13T00:38:48.570Z,97550.00
2023-01-13T00:41:19.360Z,97542.00
2023-01-13T00:43:47.650Z,97557.00
2023-01-13T00:46:22.169Z,97546.00
2023-01-13T00:48:49.916Z,97552.00
2023-01-13T00:51:20.680Z,97549.00
2023-01-13T00:53:50.334Z,97546.00
2023-01-13T00:56:30.545Z,97539.00
2023-01-13T00:59:05.471Z,97545.00
2023-01-13T01:01:33.051Z,97541.00
2023-01-13T01:04:00.223Z,97531.00
2023-01-13T01:06:28.236Z,97533.00
2023-01-13T01:08:56.347Z,97541.00
2023-01-13T01:11:30.483Z,97532.00
2023-01-13T01:14:01.223Z,97544.00
2023-01-13T01:16:30.675Z,97545.00
2023-01-13T01:18:58.647Z,97548.00
2023-01-13T01:21:28.176Z,97551.00
2023-01-13T01:23:56.106Z,97541.00
2023-01-13T01:26:25.987Z,97542.00
2023-01-13T01:28:54.146Z,97551.00
2023-01-13T01:31:27.548Z,97537.00
2023-01-13T01:33:55.796Z,97549.00
2023-01-13T01:36:26.792Z,97540.00
2023-01-13T01:38:56.628Z,97541.00
2023-01-13T01:41:28.109Z,97532.00
2023-01-13T01:44:08.132Z,97528.00
2023-01-13T01:46:41.605Z,97535.00
2023-01-13T01:49:20.579Z,97538.00
2023-01-13T01:51:57.600Z,97528.00
2023-01-13T01:54:32.361Z,97533.00
2023-01-13T01:56:59.763Z,97537.00
2023-01-13T01:59:29.863Z,97536.00
2023-01-13T02:01:57.008Z,97535.00
2023-01-13T02:04:31.610Z,97532.00
2023-01-13T02:06:58.965Z,97529.00
2023-01-13T02:09:27.308Z,97533.00
2023-01-13T02:12:13.077Z,97531.00
2023-01-13T02:14:42.080Z,97521.00
2023-01-13T02:17:21.074Z,97500.00
2023-01-13T02:20:38.260Z,97491.00
2023-01-13T02:23:57.034Z,97500.00
2023-01-13T02:26:51.017Z,97482.00
2023-01-13T02:29:57.641Z,97483.00
2023-01-13T02:32:36.314Z,97477.00
2023-01-13T02:35:32.673Z,97469.00
2023-01-13T02:38:02.032Z,97467.00
2023-01-13T02:40:49.518Z,97470.00
2023-01-13T02:43:44.037Z,97470.00
2023-01-13T02:46:27.173Z,97460.00
2023-01-13T02:48:58.102Z,97472.00
2023-01-13T02:51:29.190Z,97462.00
2023-01-13T02:54:18.321Z,97459.00
2023-01-13T02:56:50.948Z,97451.00
2023-01-13T02:59:19.901Z,97463.00
2023-01-13T03:01:50.131Z,97441.00
2023-01-13T03:04:56.036Z,97454.00
2023-01-13T03:07:57.102Z,97436.00
2023-01-13T03:11:03.367Z,97435.00
2023-01-13T03:14:17.182Z,97430.00
2023-01-13T03:17:18.572Z,97428.00
2023-01-13T03:20:13.532Z,97430.00
2023-01-13T03:23:01.949Z,97430.00
2023-01-13T03:25:40.490Z,97426.00
2023-01-13T03:28:31.739Z,97430.00
2023-01-13T03:31:05.591Z,97421.00
2023-01-13T03:33:39.772Z,97418.00
2023-01-13T03:36:11.130Z,97416.00
2023-01-13T03:38:54.532Z,97422.00
2023-01-13T03:41:44.615Z,97401.00
2023-01-13T03:44:27.572Z,97406.00
2023-01-13T03:47:20.406Z,97405.00
2023-01-13T03:49:57.379Z,97407.00
2023-01-13T03:52:47.374Z,97402.00
2023-01-13T03:55:23.191Z,97404.00
2023-01-13T03:58:03.688Z,97395.00
2023-01-13T04:01:06.686Z,97390.00
2023-01-13T04:03:53.768Z,97390.00
2023-01-13T04:06:23.531Z,97394.00
2023-01-13T04:08:59.916Z,97392.00
2023-01-13T04:11:40.242Z,97398.00
2023-01-13T04:14:10.718Z,97393.00
2023-01-13T04:16:38.434Z,97387.00
2023-01-13T04:19:06.622Z,97383.00
2023-01-13T04:21:34.949Z,97381.00
2023-01-13T04:24:02.069Z,97392.00
2023-01-13T04:26:29.171Z,97397.00
2023-01-13T04:28:56.203Z,97397.00
2023-01-13T04:31:23.368Z,97395.00
2023-01-13T04:33:50.401Z,97388.00
2023-01-13T04:36:17.541Z,97383.00
2023-01-13T04:38:44.599Z,97383.00
2023-01-13T04:41:11.671Z,97364.00
2023-01-13T04:43:38.715Z,97370.00
2023-01-13T04:46:06.143Z,97378.00
2023-01-13T04:48:33.340Z,97376.00
2023-01-13T04:51:00.428Z,97377.00
2023-01-13T04:53:27.501Z,97383.00
2023-01-13T04:55:55.153Z,97380.00
2023-01-13T04:58:22.378Z,97377.00
2023-01-13T05:00:51.836Z,97374.00
2023-01-13T05:03:19.009Z,97366.00
2023-01-13T05:05:46.064Z,97379.00
2023-01-13T05:08:13.226Z,97366.00
2023-01-13T05:10:40.341Z,97354.00
2023-01-13T05:13:28.044Z,97345.00
2023-01-13T05:16:13.983Z,97361.00
2023-01-13T05:18:41.012Z,97341.00
2023-01-13T05:21:28.036Z,97340.00
2023-01-13T05:24:33.419Z,97347.00
2023-01-13T05:27:00.445Z,97350.00
2023-01-13T05:29:27.508Z,97366.00
2023-01-13T05:31:54.592Z,97356.00
2023-01-13T05:34:21.675Z,97349.00
2023-01-13T05:36:48.688Z,97355.00
2023-01-13T05:39:15.865Z,97354.00
2023-01-13T05:42:01.332Z,97352.00
2023-01-13T05:44:29.005Z,97342.00
2023-01-13T05:46:56.049Z,97335.00
2023-01-13T05:49:23.213Z,97339.00
2023-01-13T05:51:50.308Z,97336.00
2023-01-13T05:54:17.388Z,97334.00
2023-01-13T05:56:44.514Z,97332.00
2023-01-13T05:59:11.667Z,97340.00
2023-01-13T06:01:38.679Z,97335.00
2023-01-13T06:04:05.922Z,97348.00
2023-01-13T06:06:33.044Z,97344.00
2023-01-13T06:09:00.120Z,97351.00
2023-01-13T06:11:27.252Z,97336.00
2023-01-13T06:13:54.322Z,97339.00
2023-01-13T06:16:21.442Z,97347.00
2023-01-13T06:18:48.612Z,97349.00
2023-01-13T06:21:15.647Z,97353.00
2023-01-13T06:23:42.654Z,97354.00
2023-01-13T06:26:19.753Z,97350.00
2023-01-13T06:28:46.930Z,97364.00
2023-01-13T06:31:14.109Z,97347.00
2023-01-13T06:33:53.749Z,97354.00
2023-01-13T06:36:26.856Z,97363.00
2023-01-13T06:38:59.085Z,97374.00
2023-01-13T06:41:47.536Z,97356.00
2023-01-13T06:44:15.038Z,97366.00
2023-01-13T06:46:42.347Z,97353.00
2023-01-13T06:49:09.521Z,97357.00
2023-01-13T06:51:36.732Z,97357.00
2023-01-13T06:54:04.483Z,97366.00
2023-01-13T06:56:31.646Z,97364.00
2023-01-13T06:58:58.981Z,97365.00
2023-01-13T07:01:26.206Z,97354.00
2023-01-13T07:03:53.279Z,97354.00
2023-01-13T07:06:20.359Z,97365.00
2023-01-13T07:08:47.783Z,97370.00
2023-01-13T07:11:14.834Z,97360.00
2023-01-13T07:14:00.606Z,97352.00
2023-01-13T07:16:28.302Z,97350.00
2023-01-13T07:18:55.382Z,97360.00
2023-01-13T07:21:22.439Z,97351.00
2023-01-13T07:23:49.480Z,97356.00
2023-01-13T07:26:17.108Z,97354.00
2023-01-13T07:28:44.409Z,97351.00
2023-01-13T07:31:21.138Z,97357.00
2023-01-13T07:33:48.783Z,97353.00
2023-01-13T07:36:16.066Z,97344.00
2023-01-13T07:38:44.619Z,97334.00
2023-01-13T07:41:34.073Z,97330.00
2023-01-13T07:44:04.951Z,97337.00
2023-01-13T07:46:33.634Z,97347.00
2023-01-13T07:49:00.779Z,97337.00
2023-01-13T07:51:27.888Z,97344.00
2023-01-13T07:53:54.956Z,97341.00
2023-01-13T07:56:22.220Z,97342.00
2023-01-13T07:58:51.203Z,97349.00
2023-01-13T08:01:19.702Z,97331.00
2023-01-13T08:03:47.058Z,97336.00
2023-01-13T08:06:14.847Z,97342.00
2023-01-13T08:08:41.858Z,97345.00
2023-01-13T08:11:09.193Z,97350.00
2023-01-13T08:13:36.556Z,97353.00
2023-01-13T08:16:08.559Z,97365.00
2023-01-13T08:18:36.917Z,97358.00
2023-01-13T08:21:14.537Z,97368.00
2023-01-13T08:23:44.305Z,97361.00
2023-01-13T08:26:16.054Z,97371.00
2023-01-13T08:28:43.135Z,97380.00
2023-01-13T08:31:16.502Z,97374.00
2023-01-13T08:33:43.936Z,97387.00
2023-01-13T08:36:12.711Z,97380.00
2023-01-13T08:38:41.222Z,97378.00
2023-01-13T08:41:15.799Z,97381.00
2023-01-13T08:43:42.882Z,97379.00
2023-01-13T08:46:10.275Z,97363.00
2023-01-13T08:48:37.377Z,97375.00
2023-01-13T08:51:07.851Z,97381.00
2023-01-13T08:53:35.362Z,97380.00
2023-01-13T08:56:02.478Z,97380.00
2023-01-13T08:58:31.153Z,97379.00
2023-01-13T09:01:05.036Z,97393.00
2023-01-13T09:03:32.128Z,97385.00
2023-01-13T09:05:59.298Z,97379.00
2023-01-13T09:08:26.374Z,97384.00
2023-01-13T09:10:53.417Z,97378.00
2023-01-13T09:13:21.869Z,97390.00
2023-01-13T09:15:49.087Z,97382.00
2023-01-13T09:18:16.212Z,97382.00
2023-01-13T09:20:44.608Z,97391.00
2023-01-13T09:23:11.743Z,97375.00
2023-01-13T09:25:39.775Z,97380.00
2023-01-13T09:28:08.587Z,97381.00
2023-01-13T09:30:37.217Z,97377.00
2023-01-13T09:33:23.045Z,97387.00
2023-01-13T09:35:50.201Z,97385.00
2023-01-13T09:38:17.314Z,97383.00
2023-01-13T09:40:44.409Z,97382.00
2023-01-13T09:43:53.850Z,97390.00
2023-01-13T09:46:44.051Z,97389.00
2023-01-13T09:49:22.974Z,97404.00
2023-01-13T09:52:06.074Z,97406.00
2023-01-13T09:55:05.452Z,97400.00
2023-01-13T09:57:39.982Z,97407.00
2023-01-13T10:00:35.799Z,97407.00
2023-01-13T10:03:20.974Z,97402.00
2023-01-13T10:05:56.447Z,97389.00
2023-01-13T10:08:29.421Z,97386.00
2023-01-13T10:11:24.052Z,97373.00
2023-01-13T10:14:11.788Z,97371.00
2023-01-13T10:17:02.635Z,97375.00
2023-01-13T10:19:43.564Z,97380.00
2023-01-13T10:22:18.307Z,97375.00
2023-01-13T10:25:36.298Z,97362.00
2023-01-13T10:28:12.565Z,97360.00
2023-01-13T10:30:46.698Z,97360.00
2023-01-13T10:33:21.444Z,97354.00
2023-01-13T10:36:03.404Z,97352.00
2023-01-13T10:38:41.943Z,97352.00
2023-01-13T10:41:25.615Z,97353.00
2023-01-13T10:43:52.731Z,97351.00
2023-01-13T10:46:20.949Z,97350.00
2023-01-13T10:48:58.839Z,97350.00
2023-01-13T10:51:43.968Z,97338.00
2023-01-13T10:54:14.035Z,97333.00
2023-01-13T10:56:44.949Z,97338.00
2023-01-13T10:59:24.532Z,97341.00
2023-01-13T11:02:25.883Z,97343.00
2023-01-13T11:04:53.760Z,97334.00
2023-01-13T11:07:54.555Z,97332.00
2023-01-13T11:10:29.447Z,97320.00
2023-01-13T11:13:18.351Z,97309.00
2023-01-13T11:16:14.255Z,97294.00
2023-01-13T11:19:02.390Z,97302.00
2023-01-13T11:21:47.166Z,97290.00
2023-01-13T11:24:46.060Z,97295.00
2023-01-13T11:27:39.633Z,97293.00
2023-01-13T11:30:26.010Z,97301.00
2023-01-13T11:33:14.204Z,97293.00
2023-01-13T11:36:20.864Z,97288.00
2023-01-13T11:39:19.310Z,97293.00
2023-01-13T11:42:21.221Z,97291.00
2023-01-13T11:45:07.694Z,97288.00
2023-01-13T11:47:36.269Z,97291.00
2023-01-13T11:50:07.954Z,97282.00
2023-01-13T11:52:37.736Z,97283.00
2023-01-13T11:55:43.775Z,97276.00
2023-01-13T11:58:52.224Z,97276.00
2023-01-13T12:02:10.447Z,97272.00
2023-01-13T12:05:05.432Z,97268.00
2023-01-13T12:08:15.912Z,97267.00
2023-01-13T12:11:04.269Z,97262.00
2023-01-13T12:14:11.796Z,97253.00
2023-01-13T12:16:49.109Z,97260.00
2023-01-13T12:19:32.423Z,97265.00
2023-01-13T12:22:26.333Z,97262.00
2023-01-13T12:25:40.948Z,97272.00
2023-01-13T12:28:19.588Z,97274.00
2023-01-13T12:30:55.364Z,97274.00
2023-01-13T12:33:40.716Z,97278.00
2023-01-13T12:36:45.176Z,97281.00
2023-01-13T12:39:45.504Z,97280.00
2023-01-13T12:42:48.918Z,97290.00
2023-01-13T12:45:18.401Z,97297.00
2023-01-13T12:47:46.465Z,97303.00
2023-01-13T12:50:22.749Z,97290.00
2023-01-13T12:53:29.828Z,97285.00
2023-01-13T12:56:37.115Z,97280.00
2023-01-13T12:59:19.576Z,97278.00
2023-01-13T13:01:49.859Z,97278.00
2023-01-13T13:04:42.849Z,97281.00
2023-01-13T13:07:17.717Z,97292.00
2023-01-13T13:09:55.579Z,97285.00
2023-01-13T13:12:51.465Z,97286.00
2023-01-13T13:15:34.189Z,97285.00
2023-01-13T13:18:25.255Z,97286.00
2023-01-13T13:21:09.421Z,97288.00
2023-01-13T13:23:53.044Z,97293.00
2023-01-13T13:26:25.588Z,97292.00
2023-01-13T13:29:20.616Z,97292.00
2023-01-13T13:32:17.694Z,97287.00
2023-01-13T13:35:25.798Z,97295.00
2023-01-13T13:38:49.186Z,97293.00
2023-01-13T13:41:42.415Z,97288.00
2023-01-13T13:44:52.300Z,97296.00
2023-01-13T13:47:19.477Z,97302.00
2023-01-13T13:49:56.015Z,97307.00
2023-01-13T13:52:54.404Z,97303.00
2023-01-13T13:55:25.667Z,97302.00
2023-01-13T13:57:57.443Z,97300.00
2023-01-13T14:00:27.484Z,97302.00
2023-01-13T14:03:01.627Z,97298.00
2023-01-13T14:05:34.872Z,97300.00
2023-01-13T14:08:13.008Z,97304.00
2023-01-13T14:10:43.210Z,97310.00
2023-01-13T14:13:17.799Z,97314.00
2023-01-13T14:15:46.603Z,97327.00
2023-01-13T14:18:19.861Z,97322.00
2023-01-13T14:21:05.448Z,97318.00
2023-01-13T14:23:34.008Z,97324.00
2023-01-13T14:26:09.545Z,97312.00
2023-01-13T14:28:38.747Z,97325.00
2023-01-13T14:31:08.571Z,97320.00
2023-01-13T14:33:54.357Z,97314.00
2023-01-13T14:36:33.437Z,97320.00
2023-01-13T14:39:03.507Z,97323.00
2023-01-13T14:41:45.497Z,97329.00
2023-01-13T14:44:32.075Z,97326.00
2023-01-13T14:47:03.889Z,97336.00
2023-01-13T14:50:02.721Z,97351.00
2023-01-13T14:52:57.714Z,97356.00
2023-01-13T14:55:32.264Z,97368.00
2023-01-13T14:58:28.723Z,97356.00
2023-01-13T15:01:36.454Z,97362.00
2023-01-13T15:04:31.400Z,97367.00
2023-01-13T15:07:00.037Z,97380.00
2023-01-13T15:09:33.360Z,97402.00
2023-01-13T15:12:14.889Z,97497.00
2023-01-13T15:14:42.123Z,97551.00
2023-01-13T15:17:17.355Z,97555.00
2023-01-13T15:19:44.766Z,97572.00
2023-01-13T15:22:11.824Z,97598.00
2023-01-13T15:24:38.943Z,97599.00
2023-01-13T15:27:20.340Z,97593.00
2023-01-13T15:29:47.437Z,97582.00
2023-01-13T15:32:20.001Z,97586.00
2023-01-13T15:34:48.682Z,97571.00
2023-01-13T15:37:17.169Z,97592.00
2023-01-13T15:39:44.192Z,97598.00
2023-01-13T15:42:33.060Z,97598.00
2023-01-13T15:45:18.848Z,97599.00
2023-01-13T15:47:45.897Z,97610.00
2023-01-13T15:50:18.267Z,97623.00
2023-01-13T15:52:45.442Z,97607.00
2023-01-13T15:55:12.609Z,97617.00
2023-01-13T15:57:46.917Z,97607.00
2023-01-13T16:00:21.614Z,97608.00
2023-01-13T16:02:49.859Z,97607.00
2023-01-13T16:05:17.371Z,97616.00
2023-01-13T16:07:44.410Z,97604.00
2023-01-13T16:10:26.641Z,97619.00
2023-01-13T16:12:57.774Z,97629.00
2023-01-13T16:15:26.109Z,97623.00
2023-01-13T16:17:59.972Z,97616.00
2023-01-13T16:20:27.722Z,97623.00
2023-01-13T16:22:54.719Z,97618.00
2023-01-13T16:25:27.249Z,97624.00
2023-01-13T16:27:54.408Z,97609.00
2023-01-13T16:30:37.173Z,97624.00
2023-01-13T16:33:04.340Z,97633.00
2023-01-13T16:35:35.354Z,97641.00
2023-01-13T16:38:02.460Z,97658.00
2023-01-13T16:40:36.002Z,97651.00
2023-01-13T16:43:06.776Z,97652.00
2023-01-13T16:45:34.313Z,97679.00
2023-01-13T16:48:01.507Z,97670.00
2023-01-13T16:50:41.055Z,97676.00
2023-01-13T16:53:12.518Z,97684.00
2023-01-13T16:55:42.019Z,97687.00
2023-01-13T16:58:20.649Z,97682.00
2023-01-13T17:00:48.251Z,97687.00
2023-01-13T17:03:16.347Z,97690.00
2023-01-13T17:05:47.660Z,97701.00
2023-01-13T17:08:19.061Z,97702.00
2023-01-13T17:10:47.215Z,97704.00
2023-01-13T17:13:16.999Z,97710.00
2023-01-13T17:15:45.835Z,97698.00
2023-01-13T17:18:13.627Z,97709.00
2023-01-13T17:20:41.177Z,97710.00
2023-01-13T17:23:08.478Z,97716.00
2023-01-13T17:25:35.863Z,97726.00
2023-01-13T17:28:03.334Z,97722.00
2023-01-13T17:30:30.374Z,97730.00
2023-01-13T17:32:57.491Z,97728.00
2023-01-13T17:35:25.297Z,97734.00
2023-01-13T17:37:54.019Z,97730.00
2023-01-13T17:40:21.552Z,97738.00
2023-01-13T17:42:48.839Z,97734.00
2023-01-13T17:45:16.376Z,97726.00
2023-01-13T17:47:43.470Z,97744.00
2023-01-13T17:50:11.728Z,97741.00
2023-01-13T17:52:39.179Z,97738.00
2023-01-13T17:55:06.567Z,97740.00
2023-01-13T17:57:35.436Z,97742.00
2023-01-13T18:00:05.752Z,97751.00
2023-01-13T18:02:33.481Z,97748.00
2023-01-13T18:05:00.547Z,97761.00
2023-01-13T18:07:28.154Z,97773.00
2023-01-13T18:09:55.258Z,97777.00
2023-01-13T18:12:22.290Z,97779.00
2023-01-13T18:14:49.300Z,97787.00
2023-01-13T18:17:17.027Z,97796.00
2023-01-13T18:20:02.935Z,97802.00
2023-01-13T18:22:48.767Z,97800.00
2023-01-13T18:25:34.732Z,97795.00
2023-01-13T18:28:05.058Z,97803.00
2023-01-13T18:30:32.282Z,97800.00
2023-01-13T18:32:59.479Z,97793.00
2023-01-13T18:35:26.545Z,97789.00
2023-01-13T18:37:53.609Z,97796.00
2023-01-13T18:40:20.688Z,97795.00
2023-01-13T18:42:54.959Z,97794.00
2023-01-13T18:45:31.863Z,97797.00
2023-01-13T18:48:04.408Z,97800.00
2023-01-13T18:50:32.878Z,97802.00
2023-01-13T18:53:00.551Z,97810.00
2023-01-13T18:55:29.140Z,97796.00
2023-01-13T18:57:56.622Z,97823.00
2023-01-13T19:00:25.019Z,97819.00
2023-01-13T19:05:35.049Z,97815.00
2023-01-13T19:08:02.751Z,97816.00
2023-01-13T19:10:32.413Z,97816.00
2023-01-13T19:13:01.350Z,97808.00
2023-01-13T19:15:28.513Z,97821.00
2023-01-13T19:17:55.797Z,97829.00
2023-01-13T19:20:22.790Z,97834.00
2023-01-13T19:22:54.266Z,97835.00
2023-01-13T19:25:21.529Z,97845.00
2023-01-13T19:27:48.593Z,97839.00
2023-01-13T19:30:15.783Z,97844.00
2023-01-13T19:32:42.991Z,97839.00
2023-01-13T19:35:13.163Z,97846.00
2023-01-13T19:37:40.422Z,97844.00
2023-01-13T19:40:09.551Z,97851.00
2023-01-13T19:42:55.456Z,97851.00
2023-01-13T19:45:30.907Z,97856.00
2023-01-13T19:48:01.948Z,97855.00
2023-01-13T19:50:29.399Z,97850.00
2023-01-13T19:52:56.739Z,97847.00
2023-01-13T19:55:23.845Z,97847.00
2023-01-13T19:57:50.891Z,97856.00
2023-01-13T20:00:20.829Z,97857.00
2023-01-13T20:02:51.832Z,97857.00
2023-01-13T20:05:23.670Z,97859.00
2023-01-13T20:07:51.352Z,97865.00
2023-01-13T20:10:21.721Z,97863.00
2023-01-13T20:12:48.999Z,97859.00
2023-01-13T20:15:16.158Z,97861.00
2023-01-13T20:17:43.312Z,97875.00
2023-01-13T20:20:11.926Z,97873.00
2023-01-13T20:22:40.350Z,97877.00
2023-01-13T20:25:08.947Z,97871.00
2023-01-13T20:27:37.605Z,97872.00
2023-01-13T20:30:06.662Z,97870.00
2023-01-13T20:32:33.638Z,97865.00
2023-01-13T20:35:00.688Z,97880.00
2023-01-13T20:37:28.056Z,97880.00
2023-01-13T20:39:57.474Z,97887.00
2023-01-13T20:42:30.645Z,97890.00
2023-01-13T20:44:59.753Z,97889.00
2023-01-13T20:47:28.659Z,97910.00
2023-01-13T20:49:55.743Z,97909.00
2023-01-13T20:52:23.043Z,97889.00
2023-01-13T20:54:50.084Z,97898.00
2023-01-13T20:57:17.406Z,97897.00
2023-01-13T20:59:45.466Z,97895.00
2023-01-13T21:02:15.290Z,97894.00
2023-01-13T21:04:42.909Z,97894.00
2023-01-13T21:07:10.740Z,97895.00
2023-01-13T21:09:37.952Z,97897.00
2023-01-13T21:12:23.895Z,97887.00
2023-01-13T21:15:09.802Z,97899.00
2023-01-13T21:17:55.676Z,97897.00
2023-01-13T21:20:22.892Z,97901.00
2023-01-13T21:22:50.067Z,97906.00
2023-01-13T21:25:18.657Z,97908.00
2023-01-13T21:27:46.024Z,97906.00
2023-01-13T21:30:15.645Z,97901.00
2023-01-13T21:32:44.901Z,97909.00
2023-01-13T21:35:13.815Z,97912.00
2023-01-13T21:37:43.381Z,97905.00
2023-01-13T21:40:14.195Z,97908.00
2023-01-13T21:43:00.202Z,97907.00
2023-01-13T21:45:46.242Z,97904.00
2023-01-13T21:48:13.385Z,97907.00
2023-01-13T21:50:40.526Z,97916.00
2023-01-13T21:53:08.228Z,97924.00
2023-01-13T21:55:37.565Z,97929.00
2023-01-13T21:58:15.521Z,97936.00
2023-01-13T22:00:44.554Z,97935.00
2023-01-13T22:03:14.713Z,97935.00
2023-01-13T22:05:42.048Z,97925.00
2023-01-13T22:08:12.723Z,97930.00
2023-01-13T22:10:57.609Z,97929.00
2023-01-13T22:13:44.594Z,97944.00
2023-01-13T22:16:12.518Z,97942.00
2023-01-13T22:18:39.635Z,97951.00
2023-01-13T22:21:07.098Z,97975.00
2023-01-13T22:23:34.170Z,97982.00
2023-01-13T22:26:03.629Z,97965.00
2023-01-13T22:28:43.664Z,97975.00
2023-01-13T22:31:21.283Z,97974.00
2023-01-13T22:33:48.488Z,97977.00
2023-01-13T22:36:16.336Z,97977.00
2023-01-13T22:38:43.501Z,97976.00
2023-01-13T22:41:11.176Z,97985.00
2023-01-13T22:43:39.139Z,97977.00
2023-01-13T22:46:13.245Z,97992.00
2023-01-13T22:48:41.333Z,97990.00
2023-01-13T22:51:15.460Z,97990.00
2023-01-13T22:53:43.035Z,97994.00
2023-01-13T22:56:23.804Z,97996.00
2023-01-13T22:58:56.088Z,97987.00
2023-01-13T23:01:24.552Z,97984.00
2023-01-13T23:03:52.332Z,97990.00
2023-01-13T23:06:21.339Z,97989.00
2023-01-13T23:08:49.133Z,97994.00
2023-01-13T23:11:18.827Z,97996.00
2023-01-13T23:13:46.955Z,98003.00
2023-01-13T23:16:18.378Z,98002.00
2023-01-13T23:18:48.096Z,98005.00
2023-01-13T23:21:22.069Z,98005.00
2023-01-13T23:23:49.962Z,98014.00
2023-01-13T23:26:18.120Z,98025.00
2023-01-13T23:28:45.419Z,98018.00
2023-01-13T23:31:16.616Z,98026.00
2023-01-13T23:33:44.819Z,98037.00
2023-01-13T23:36:21.571Z,98041.00
2023-01-13T23:38:48.976Z,98025.00
2023-01-13T23:41:20.637Z,98038.00
2023-01-13T23:43:54.497Z,98034.00
2023-01-13T23:46:22.261Z,98043.00
2023-01-13T23:48:50.452Z,98048.00
2023-01-13T23:51:21.441Z,98049.00
2023-01-13T23:53:50.600Z,98049.00
2023-01-13T23:56:24.364Z,98053.00
2023-01-13T23:58:52.580Z,98053.00
